Time;durP1;ratioP1;P1;durP2;ratioP2;P2;SDS_P1;SDS_P2;PMS_P1;PMS_P2;Temp;Humidity;BMP_temperature;BMP_pressure;BME280_temperature;BME280_humidity;BME280_pressure;Samples;Min_cycle;Max_cycle;Signal;HPM_P1;HPM_P2
2022/03/06 00:01:00;;;;;;;50.37;24.43;;;;;;;4.06;100.00;99930.13;5126434;27;20279;-76
2022/03/06 00:03:26;;;;;;;52.33;26.67;;;;;;;4.06;100.00;99936.22;5096878;28;20037;-76
2022/03/06 00:05:51;;;;;;;58.80;27.77;;;;;;;4.02;100.00;99928.69;5094699;28;20059;-76
2022/03/06 00:08:17;;;;;;;60.00;27.03;;;;;;;4.09;100.00;99930.75;5094950;28;20086;-76
2022/03/06 00:10:42;;;;;;;60.53;28.13;;;;;;;4.08;100.00;99913.34;5095477;28;20087;-77
2022/03/06 00:13:08;;;;;;;62.83;28.33;;;;;;;3.96;100.00;99901.19;5095083;28;20104;-77
2022/03/06 00:15:33;;;;;;;57.53;26.87;;;;;;;4.05;100.00;99920.59;5094599;28;20047;-77
2022/03/06 00:17:59;;;;;;;58.50;29.20;;;;;;;4.06;100.00;99909.19;5096251;28;20307;-76
2022/03/06 00:20:24;;;;;;;58.17;26.37;;;;;;;3.99;100.00;99918.44;5094746;28;20032;-77
2022/03/06 00:22:50;;;;;;;59.73;26.93;;;;;;;4.03;100.00;99909.41;5097875;28;20181;-76
2022/03/06 00:25:16;;;;;;;58.10;27.37;;;;;;;3.89;100.00;99894.72;5092933;28;20019;-76
2022/03/06 00:27:41;;;;;;;48.13;22.27;;;;;;;3.95;100.00;99902.13;5096060;28;20077;-76
2022/03/06 00:30:08;;;;;;;50.60;23.60;;;;;;;3.97;100.00;99913.31;5094014;28;20046;-76
2022/03/06 00:32:34;;;;;;;51.23;25.93;;;;;;;3.99;100.00;99914.03;5095772;28;20028;-76
2022/03/06 00:34:59;;;;;;;57.73;27.10;;;;;;;3.99;100.00;99924.53;5094394;28;20073;-76
2022/03/06 00:37:25;;;;;;;59.07;29.07;;;;;;;3.91;100.00;99897.25;5095406;28;20040;-77
2022/03/06 00:39:51;;;;;;;55.87;26.77;;;;;;;3.98;100.00;99904.50;5092975;28;20032;-76
2022/03/06 00:42:16;;;;;;;56.53;26.50;;;;;;;3.95;100.00;99898.69;5095625;28;20040;-76
2022/03/06 00:44:42;;;;;;;62.13;29.57;;;;;;;3.96;100.00;99913.44;5093376;28;20066;-76
2022/03/06 00:47:07;;;;;;;45.13;20.77;;;;;;;3.91;100.00;99924.28;5095640;28;20030;-76
2022/03/06 00:49:33;;;;;;;55.40;27.77;;;;;;;3.90;100.00;99908.66;5093049;28;20063;-76
2022/03/06 00:51:59;;;;;;;62.20;27.70;;;;;;;3.89;100.00;99897.34;5095044;28;20036;-76
2022/03/06 00:54:25;;;;;;;42.90;18.03;;;;;;;3.80;100.00;99922.47;5091966;28;20042;-77
2022/03/06 00:56:51;;;;;;;55.70;27.27;;;;;;;3.84;100.00;99902.09;5092331;28;20338;-77
2022/03/06 00:59:17;;;;;;;44.83;21.27;;;;;;;3.80;100.00;99900.66;5094086;28;20077;-76
2022/03/06 01:01:42;;;;;;;61.23;29.03;;;;;;;3.80;100.00;99888.41;5093476;28;20036;-76
2022/03/06 01:04:08;;;;;;;53.53;25.17;;;;;;;3.80;100.00;99890.19;5094144;28;20020;-76
2022/03/06 01:06:33;;;;;;;52.80;26.23;;;;;;;3.76;100.00;99883.50;5094371;28;20222;-76
2022/03/06 01:08:59;;;;;;;50.63;22.67;;;;;;;3.71;100.00;99893.50;5093614;28;20322;-76
2022/03/06 01:11:25;;;;;;;51.50;24.13;;;;;;;3.69;100.00;99882.31;5094468;28;20247;-76
2022/03/06 01:13:51;;;;;;;49.37;21.03;;;;;;;3.64;100.00;99902.75;5094048;28;20038;-77
2022/03/06 01:16:16;;;;;;;52.83;25.10;;;;;;;3.55;100.00;99872.03;5093826;28;20134;-76
2022/03/06 01:18:42;;;;;;;51.13;23.13;;;;;;;3.67;100.00;99892.91;5093293;28;20028;-76
2022/03/06 01:21:08;;;;;;;52.93;25.43;;;;;;;3.55;100.00;99895.59;5094573;28;20036;-76
2022/03/06 01:23:35;;;;;;;58.93;28.60;;;;;;;3.67;100.00;99889.44;5093607;28;20218;-76
2022/03/06 01:26:01;;;;;;;52.63;24.83;;;;;;;3.49;100.00;99862.84;5093501;28;20035;-76
2022/03/06 01:28:26;;;;;;;51.60;24.47;;;;;;;3.63;100.00;99890.63;5094669;28;20032;-76
2022/03/06 01:30:52;;;;;;;51.30;23.70;;;;;;;3.65;100.00;99886.94;5094243;28;20070;-76
2022/03/06 01:33:17;;;;;;;50.23;23.23;;;;;;;3.48;100.00;99880.34;5092522;28;20035;-76
2022/03/06 01:35:43;;;;;;;54.97;26.10;;;;;;;3.50;100.00;99882.84;5094982;28;20221;-77
2022/03/06 01:38:08;;;;;;;53.37;25.90;;;;;;;3.55;100.00;99887.75;5092707;28;20087;-76
2022/03/06 01:40:33;;;;;;;41.17;19.30;;;;;;;3.46;100.00;99889.25;5094835;28;20036;-76
2022/03/06 01:42:59;;;;;;;51.87;24.13;;;;;;;3.38;100.00;99871.50;5092682;28;20039;-76
2022/03/06 01:45:24;;;;;;;51.90;23.97;;;;;;;3.48;100.00;99876.88;5094197;28;20259;-76
2022/03/06 01:47:53;;;;;;;50.80;23.87;;;;;;;3.48;100.00;99895.22;5093047;28;20062;-76
2022/03/06 01:50:23;;;;;;;45.50;20.10;;;;;;;3.39;100.00;99880.19;5093524;28;20292;-76
2022/03/06 01:52:52;;;;;;;39.87;19.13;;;;;;;3.38;100.00;99873.28;5092138;28;20034;-77
2022/03/06 01:55:19;;;;;;;41.43;18.13;;;;;;;3.27;100.00;99875.84;5095263;28;20016;-76
2022/03/06 01:57:46;;;;;;;57.70;26.23;;;;;;;3.42;100.00;99875.56;5089509;28;20054;-77
2022/03/06 02:00:18;;;;;;;50.00;22.07;;;;;;;3.41;100.00;99881.75;5092184;28;20347;-76
2022/03/06 02:02:44;;;;;;;50.57;23.60;;;;;;;3.35;100.00;99887.44;5093879;28;20103;-76
2022/03/06 02:05:11;;;;;;;47.60;21.07;;;;;;;3.28;100.00;99873.13;5092026;28;20067;-76
2022/03/06 02:07:37;;;;;;;42.33;19.20;;;;;;;3.26;100.00;99880.25;5093485;28;20040;-76
2022/03/06 02:10:04;;;;;;;45.10;19.70;;;;;;;3.19;100.00;99900.78;5092401;28;20336;-76
2022/03/06 02:12:30;;;;;;;46.23;21.73;;;;;;;3.22;100.00;99889.28;5094360;28;20431;-77
2022/03/06 02:14:57;;;;;;;37.03;17.93;;;;;;;3.15;100.00;99901.97;5092741;28;20325;-77
2022/03/06 02:17:24;;;;;;;43.67;21.03;;;;;;;3.14;100.00;99892.44;5094040;28;20274;-76
2022/03/06 02:19:53;;;;;;;41.67;20.93;;;;;;;3.10;100.00;99890.97;5094324;28;20043;-76
2022/03/06 02:22:20;;;;;;;51.70;25.03;;;;;;;3.12;100.00;99885.63;5091729;28;20340;-76
2022/03/06 02:24:45;;;;;;;44.10;20.37;;;;;;;3.04;100.00;99891.41;5093332;28;20077;-76
2022/03/06 02:27:11;;;;;;;49.50;22.43;;;;;;;2.84;100.00;99882.38;5094397;28;20035;-76
2022/03/06 02:29:41;;;;;;;46.07;20.63;;;;;;;3.01;100.00;99907.31;5093364;28;20327;-76
2022/03/06 02:32:11;;;;;;;48.97;21.37;;;;;;;2.93;100.00;99893.97;5093982;28;20044;-77
2022/03/06 02:34:38;;;;;;;54.30;24.53;;;;;;;3.04;100.00;99888.78;5093939;28;20037;-77
2022/03/06 02:37:04;;;;;;;47.00;21.10;;;;;;;3.01;100.00;99885.56;5091989;28;20121;-77
2022/03/06 02:39:29;;;;;;;34.20;15.83;;;;;;;2.90;100.00;99912.50;5093199;28;20068;-76
2022/03/06 02:41:55;;;;;;;47.80;21.40;;;;;;;2.86;100.00;99896.19;5091859;28;20330;-76
2022/03/06 02:44:21;;;;;;;50.03;21.50;;;;;;;2.93;100.00;99899.19;5094341;28;20058;-76
2022/03/06 02:46:47;;;;;;;39.33;17.83;;;;;;;2.85;100.00;99891.06;5092625;28;20059;-76
2022/03/06 02:49:13;;;;;;;43.77;20.37;;;;;;;2.70;100.00;99895.59;5093590;28;20033;-76
2022/03/06 02:51:43;;;;;;;37.70;18.57;;;;;;;2.67;100.00;99879.28;5092238;28;20024;-77
2022/03/06 02:54:10;;;;;;;52.20;23.43;;;;;;;2.79;100.00;99908.03;5093359;28;20228;-76
2022/03/06 02:56:36;;;;;;;50.50;23.73;;;;;;;2.84;100.00;99887.59;5091548;28;20035;-76
2022/03/06 02:59:03;;;;;;;43.33;19.60;;;;;;;2.80;100.00;99903.63;5093699;28;20064;-76
2022/03/06 03:01:28;;;;;;;34.83;16.03;;;;;;;2.76;100.00;99896.94;5091675;28;20028;-77
2022/03/06 03:03:53;;;;;;;38.87;18.33;;;;;;;2.71;100.00;99912.97;5092602;28;20051;-76
2022/03/06 03:06:19;;;;;;;49.20;23.60;;;;;;;2.77;100.00;99917.75;5091706;28;20222;-76
2022/03/06 03:08:48;;;;;;;54.57;22.03;;;;;;;2.69;100.00;99904.38;5093085;28;20044;-76
2022/03/06 03:11:14;;;;;;;39.53;17.13;;;;;;;2.58;100.00;99891.22;5090872;28;20028;-77
2022/03/06 03:13:40;;;;;;;44.70;21.00;;;;;;;2.74;100.00;99909.28;5093260;28;20051;-76
2022/03/06 03:16:06;;;;;;;51.70;23.27;;;;;;;2.69;100.00;99900.94;5091385;28;20044;-76
2022/03/06 03:18:32;;;;;;;49.50;20.90;;;;;;;2.55;100.00;99881.00;5098870;28;20053;-76
2022/03/06 03:20:57;;;;;;;45.37;18.90;;;;;;;2.62;100.00;99907.53;5099905;28;20322;-76
2022/03/06 03:23:23;;;;;;;39.37;17.20;;;;;;;2.58;100.00;99919.16;5102685;28;20091;-77
2022/03/06 03:25:48;;;;;;;43.63;17.27;;;;;;;2.50;100.00;99924.91;5102472;28;20031;-76
2022/03/06 03:28:14;;;;;;;42.67;18.83;;;;;;;2.37;100.00;99903.19;5099841;28;20341;-76
2022/03/06 03:30:39;;;;;;;46.37;19.97;;;;;;;2.46;100.00;99928.69;5102293;28;20068;-77
2022/03/06 03:33:05;;;;;;;42.57;18.37;;;;;;;2.33;100.00;99920.84;5101890;28;20028;-76
2022/03/06 03:35:30;;;;;;;38.27;17.37;;;;;;;2.28;100.00;99919.50;5101999;28;20096;-76
2022/03/06 03:37:55;;;;;;;53.97;23.00;;;;;;;2.40;100.00;99924.72;5100976;28;20043;-76
2022/03/06 03:40:21;;;;;;;55.77;20.43;;;;;;;2.28;100.00;99933.41;5100292;28;20038;-76
2022/03/06 03:42:46;;;;;;;48.50;18.87;;;;;;;2.21;100.00;99919.09;5100432;28;20028;-76
2022/03/06 03:45:12;;;;;;;63.60;25.73;;;;;;;2.20;100.00;99920.03;5101967;28;20073;-76
2022/03/06 03:47:38;;;;;;;49.13;19.07;;;;;;;2.15;100.00;99909.88;5101644;28;20043;-77
2022/03/06 03:50:05;;;;;;;42.67;19.37;;;;;;;2.20;100.00;99927.88;5101546;28;20326;-76
2022/03/06 03:52:30;;;;;;;43.00;17.97;;;;;;;2.05;100.00;99913.19;5100958;28;20314;-77
2022/03/06 03:54:55;;;;;;;42.00;17.43;;;;;;;2.12;100.00;99919.72;5102025;28;20036;-76
2022/03/06 03:57:23;;;;;;;61.00;24.23;;;;;;;2.20;100.00;99926.09;5102074;28;20322;-76
2022/03/06 03:59:49;;;;;;;45.33;20.37;;;;;;;2.17;100.00;99931.53;5099313;28;20032;-76
2022/03/06 04:02:15;;;;;;;47.40;21.00;;;;;;;2.16;100.00;99923.78;5100328;28;20363;-76
2022/03/06 04:04:40;;;;;;;45.63;16.70;;;;;;;2.15;100.00;99929.94;5102254;28;20028;-76
2022/03/06 04:07:06;;;;;;;56.10;21.73;;;;;;;1.85;100.00;99878.00;5101591;28;20036;-77
2022/03/06 04:09:31;;;;;;;55.53;23.73;;;;;;;2.18;100.00;99924.53;5099658;28;20060;-77
2022/03/06 04:11:57;;;;;;;56.83;23.27;;;;;;;2.13;100.00;99924.84;5097916;28;20145;-76
2022/03/06 04:14:22;;;;;;;59.67;24.90;;;;;;;2.10;100.00;99927.66;5096094;28;20821;-76
2022/03/06 04:16:48;;;;;;;62.40;21.97;;;;;;;2.05;100.00;99934.09;5093508;28;20032;-76
2022/03/06 04:19:13;;;;;;;51.60;22.80;;;;;;;2.03;100.00;99915.06;5095889;28;20046;-76
2022/03/06 04:21:39;;;;;;;50.33;23.97;;;;;;;2.06;100.00;99948.81;5093377;28;20391;-76
2022/03/06 04:24:04;;;;;;;53.00;20.67;;;;;;;1.89;100.00;99929.06;5095820;28;20048;-76
2022/03/06 04:26:30;;;;;;;55.80;20.20;;;;;;;2.00;100.00;99934.41;5093681;28;20393;-76
2022/03/06 04:28:55;;;;;;;54.80;22.33;;;;;;;1.99;100.00;99911.84;5095647;28;20020;-76
2022/03/06 04:31:21;;;;;;;55.13;23.77;;;;;;;2.02;100.00;99945.59;5093915;28;20034;-76
2022/03/06 04:33:46;;;;;;;48.27;21.87;;;;;;;2.01;100.00;99925.63;5094550;28;20059;-76
2022/03/06 04:36:12;;;;;;;49.97;22.37;;;;;;;1.88;100.00;99919.56;5093208;28;20095;-76
2022/03/06 04:38:39;;;;;;;61.03;25.03;;;;;;;1.97;100.00;99928.56;5095470;28;20352;-77
2022/03/06 04:41:04;;;;;;;58.40;22.33;;;;;;;1.82;100.00;99910.38;5093718;28;20092;-77
2022/03/06 04:43:30;;;;;;;53.30;22.00;;;;;;;1.92;100.00;99923.63;5094554;28;20048;-77
2022/03/06 04:45:55;;;;;;;57.63;24.23;;;;;;;1.82;100.00;99905.13;5094782;28;20206;-77
2022/03/06 04:48:21;;;;;;;65.47;27.77;;;;;;;1.97;100.00;99923.31;5094635;28;20078;-77
2022/03/06 04:50:46;;;;;;;60.53;22.10;;;;;;;1.98;100.00;99922.38;5093935;28;20349;-77
2022/03/06 04:53:12;;;;;;;48.07;20.17;;;;;;;1.92;100.00;99926.25;5094995;28;20032;-77
2022/03/06 04:55:37;;;;;;;54.70;22.77;;;;;;;1.91;100.00;99930.63;5093900;28;20016;-76
2022/03/06 04:58:03;;;;;;;64.63;27.77;;;;;;;1.95;100.00;99928.66;5094639;28;20032;-76
2022/03/06 05:00:29;;;;;;;63.93;26.37;;;;;;;2.02;100.00;99929.06;5092898;28;20051;-77
2022/03/06 05:02:54;;;;;;;57.80;24.10;;;;;;;1.82;100.00;99905.13;5093834;28;20380;-77
2022/03/06 05:05:20;;;;;;;65.27;27.27;;;;;;;1.99;100.00;99922.28;5094841;28;20039;-77
2022/03/06 05:07:45;;;;;;;74.40;29.13;;;;;;;1.92;100.00;99897.53;5093079;28;20094;-77
2022/03/06 05:10:11;;;;;;;67.37;26.13;;;;;;;2.00;100.00;99926.56;5095274;28;20031;-77
2022/03/06 05:12:41;;;;;;;69.83;29.63;;;;;;;1.91;100.00;99919.34;5093638;28;20115;-76
2022/03/06 05:15:08;;;;;;;69.27;28.83;;;;;;;1.90;100.00;99923.75;5092818;28;20032;-77
2022/03/06 05:17:34;;;;;;;67.17;28.80;;;;;;;1.96;100.00;99926.88;5094574;28;20131;-76
2022/03/06 05:20:00;;;;;;;71.40;25.30;;;;;;;2.03;100.00;99954.25;5093523;28;20031;-76
2022/03/06 05:22:25;;;;;;;64.30;27.37;;;;;;;1.96;100.00;99939.94;5094148;28;20055;-77
2022/03/06 05:24:51;;;;;;;71.40;29.93;;;;;;;2.01;100.00;99949.13;5093727;28;20310;-76
2022/03/06 05:27:16;;;;;;;64.70;25.07;;;;;;;2.02;100.00;99942.13;5094157;28;20089;-77
2022/03/06 05:29:42;;;;;;;71.53;30.50;;;;;;;1.90;100.00;99936.78;5094290;28;20028;-77
2022/03/06 05:32:07;;;;;;;51.27;21.73;;;;;;;1.70;100.00;99915.56;5093145;28;20046;-77
2022/03/06 05:34:33;;;;;;;68.97;27.77;;;;;;;1.79;100.00;99935.84;5093602;28;20099;-77
2022/03/06 05:36:59;;;;;;;69.93;27.30;;;;;;;1.98;100.00;99959.78;5093880;28;20120;-76
2022/03/06 05:39:24;;;;;;;64.93;28.70;;;;;;;1.86;100.00;99942.31;5093845;28;20039;-77
2022/03/06 05:41:49;;;;;;;55.50;23.27;;;;;;;1.91;100.00;99948.06;5095124;28;20024;-77
2022/03/06 05:44:15;;;;;;;72.67;24.70;;;;;;;1.89;100.00;99945.56;5093725;28;20039;-77
2022/03/06 05:46:40;;;;;;;62.53;26.60;;;;;;;1.84;100.00;99937.19;5093238;28;20399;-77
2022/03/06 05:49:12;;;;;;;71.63;29.13;;;;;;;1.89;100.00;99965.63;5093488;28;20047;-77
2022/03/06 05:51:39;;;;;;;62.13;24.80;;;;;;;1.92;100.00;99955.81;5094595;28;20238;-76
2022/03/06 05:54:06;;;;;;;68.73;27.83;;;;;;;1.93;100.00;99956.66;5089762;28;20016;-76
2022/03/06 05:56:32;;;;;;;65.10;26.83;;;;;;;1.96;100.00;99960.81;5093920;28;20230;-76
2022/03/06 05:58:58;;;;;;;66.60;26.23;;;;;;;1.95;100.00;99951.31;5093680;28;20115;-76
2022/03/06 06:01:23;;;;;;;72.83;29.37;;;;;;;2.03;100.00;99960.31;5092198;28;20294;-77
2022/03/06 06:03:49;;;;;;;58.70;23.33;;;;;;;1.99;100.00;99971.06;5094509;28;20059;-77
2022/03/06 06:06:15;;;;;;;73.47;30.10;;;;;;;1.99;100.00;99966.69;5091979;28;20081;-76
2022/03/06 06:08:40;;;;;;;75.63;31.63;;;;;;;2.03;100.00;99976.00;5093730;28;20209;-77
2022/03/06 06:11:06;;;;;;;73.07;29.73;;;;;;;1.89;100.00;99957.78;5092304;28;20218;-76
2022/03/06 06:13:32;;;;;;;68.97;28.13;;;;;;;1.94;100.00;99968.75;5094071;28;20036;-76
2022/03/06 06:15:58;;;;;;;63.87;24.83;;;;;;;1.90;100.00;99965.53;5091956;28;20054;-76
2022/03/06 06:18:25;;;;;;;66.50;25.67;;;;;;;1.99;100.00;99958.84;5094137;28;20028;-76
2022/03/06 06:20:51;;;;;;;61.17;25.13;;;;;;;2.00;100.00;99968.34;5091584;28;20039;-76
2022/03/06 06:23:16;;;;;;;63.80;26.53;;;;;;;1.87;100.00;99955.28;5094165;28;20035;-77
2022/03/06 06:25:42;;;;;;;68.20;27.43;;;;;;;1.80;100.00;99948.78;5092861;28;20314;-77
2022/03/06 06:28:07;;;;;;;76.93;31.30;;;;;;;1.75;100.00;99953.47;5093405;28;20051;-77
2022/03/06 06:30:32;;;;;;;69.47;28.70;;;;;;;1.94;100.00;99968.75;5092046;28;20340;-76
2022/03/06 06:32:58;;;;;;;67.13;26.87;;;;;;;1.83;100.00;99963.41;5093225;28;20034;-77
2022/03/06 06:35:24;;;;;;;69.73;28.87;;;;;;;1.96;100.00;99966.88;5092150;28;20355;-76
2022/03/06 06:37:49;;;;;;;83.43;33.00;;;;;;;2.01;100.00;99975.25;5092164;28;20040;-77
2022/03/06 06:40:15;;;;;;;72.37;26.40;;;;;;;2.07;100.00;99981.84;5092343;28;20031;-77
2022/03/06 06:42:40;;;;;;;80.47;30.90;;;;;;;2.12;100.00;99990.25;5091858;28;20042;-76
2022/03/06 06:45:06;;;;;;;84.27;33.47;;;;;;;2.15;100.00;99969.13;5093607;28;20028;-77
2022/03/06 06:47:31;;;;;;;76.87;33.63;;;;;;;2.17;100.00;99975.94;5091474;28;20055;-77
2022/03/06 06:49:57;;;;;;;75.07;28.03;;;;;;;2.13;100.00;99973.63;5093210;28;20127;-77
2022/03/06 06:52:22;;;;;;;72.17;30.17;;;;;;;2.07;100.00;99950.50;5092442;28;20035;-76
2022/03/06 06:54:48;;;;;;;72.43;28.97;;;;;;;2.30;100.00;99986.38;5097702;28;20028;-76
2022/03/06 06:57:13;;;;;;;71.43;29.13;;;;;;;2.18;100.00;99956.69;5095132;28;20411;-76
2022/03/06 06:59:39;;;;;;;67.30;26.33;;;;;;;2.18;100.00;99955.88;5096279;28;20373;-76
2022/03/06 07:02:04;;;;;;;64.00;27.93;;;;;;;2.36;100.00;99979.91;5095266;28;20351;-76
2022/03/06 07:04:29;;;;;;;60.63;25.67;;;;;;;2.36;100.00;99988.59;5095789;28;20031;-76
2022/03/06 07:06:55;;;;;;;52.33;23.50;;;;;;;2.24;100.00;99981.56;5096019;28;20034;-76
2022/03/06 07:09:20;;;;;;;57.07;20.60;;;;;;;2.20;100.00;99990.56;5097339;28;20032;-76
2022/03/06 07:11:46;;;;;;;61.17;22.03;;;;;;;1.88;100.00;99937.84;5095659;28;20424;-76
2022/03/06 07:14:11;;;;;;;51.97;18.20;;;;;;;2.12;100.00;99982.41;5096917;28;20103;-76
2022/03/06 07:16:37;;;;;;;42.27;18.70;;;;;;;2.21;100.00;99993.06;5095104;28;20032;-76
2022/03/06 07:19:02;;;;;;;49.17;21.30;;;;;;;2.27;100.00;99991.81;5097355;28;20049;-76
2022/03/06 07:21:28;;;;;;;52.70;23.27;;;;;;;2.28;100.00;99987.44;5094639;28;20059;-76
2022/03/06 07:23:53;;;;;;;43.40;18.60;;;;;;;2.19;100.00;100020.25;5097248;28;20251;-76
2022/03/06 07:26:18;;;;;;;58.33;22.77;;;;;;;2.29;100.00;99991.72;5094601;28;20028;-76
2022/03/06 07:28:44;;;;;;;49.07;22.00;;;;;;;2.28;100.00;99987.44;5097153;28;20044;-76
2022/03/06 07:31:09;;;;;;;52.00;20.87;;;;;;;2.21;100.00;99979.16;5094631;28;20351;-76
2022/03/06 07:33:35;;;;;;;40.60;18.47;;;;;;;2.28;100.00;99984.81;5096512;28;20031;-76
2022/03/06 07:36:01;;;;;;;38.27;15.87;;;;;;;2.30;100.00;99991.63;5094405;28;20055;-76
2022/03/06 07:38:26;;;;;;;54.90;23.80;;;;;;;2.22;100.00;99994.75;5099309;28;20046;-77
2022/03/06 07:40:52;;;;;;;41.37;18.83;;;;;;;2.23;100.00;99993.81;5101104;28;20296;-76
2022/03/06 07:43:17;;;;;;;45.07;19.23;;;;;;;2.24;100.00;99985.03;5101254;28;20099;-76
2022/03/06 07:45:43;;;;;;;39.17;16.33;;;;;;;2.16;100.00;99989.94;5101373;28;20036;-76
2022/03/06 07:48:08;;;;;;;43.80;18.93;;;;;;;2.13;100.00;99982.31;5101226;28;20036;-76
2022/03/06 07:50:34;;;;;;;41.97;16.20;;;;;;;2.11;100.00;100001.63;5101561;28;20048;-76
2022/03/06 07:52:59;;;;;;;58.23;22.60;;;;;;;2.16;100.00;99984.72;5099963;28;20048;-76
2022/03/06 07:55:25;;;;;;;45.13;20.07;;;;;;;2.15;100.00;99990.03;5101829;28;20073;-76
2022/03/06 07:57:50;;;;;;;44.60;18.53;;;;;;;2.16;100.00;99989.94;5101151;28;20024;-76
2022/03/06 08:00:16;;;;;;;46.83;21.07;;;;;;;2.11;100.00;99991.19;5099114;28;20111;-76
2022/03/06 08:02:42;;;;;;;46.77;20.73;;;;;;;2.06;100.00;99970.56;5099478;28;20036;-76
2022/03/06 08:05:08;;;;;;;51.60;21.27;;;;;;;2.16;100.00;99982.09;5099554;28;20281;-76
2022/03/06 08:07:35;;;;;;;47.87;20.30;;;;;;;2.08;100.00;99975.69;5100043;28;20254;-77
2022/03/06 08:10:04;;;;;;;54.70;24.17;;;;;;;2.24;100.00;99986.81;5101416;28;20047;-77
2022/03/06 08:12:29;;;;;;;43.70;18.53;;;;;;;2.18;100.00;99987.22;5101164;28;20214;-77
2022/03/06 08:14:55;;;;;;;36.03;15.83;;;;;;;2.10;100.00;99998.19;5101057;28;20032;-76
2022/03/06 08:17:21;;;;;;;42.23;15.90;;;;;;;2.08;100.00;99984.38;5100396;28;20035;-76
2022/03/06 08:19:46;;;;;;;52.73;14.97;;;;;;;2.02;100.00;99996.97;5100259;28;20096;-76
2022/03/06 08:22:13;;;;;;;34.63;15.13;;;;;;;1.93;100.00;99980.97;5101171;28;20043;-76
2022/03/06 08:24:39;;;;;;;49.93;22.77;;;;;;;2.10;100.00;99985.13;5101218;28;20048;-76
2022/03/06 08:27:04;;;;;;;49.53;22.63;;;;;;;2.08;100.00;100007.91;5101083;28;20039;-76
2022/03/06 08:29:30;;;;;;;48.27;21.23;;;;;;;2.01;100.00;99993.53;5101107;28;20133;-77
2022/03/06 08:31:56;;;;;;;45.80;19.33;;;;;;;1.76;100.00;99947.31;5099752;28;20222;-76
2022/03/06 08:34:21;;;;;;;37.90;16.20;;;;;;;1.91;100.00;99979.41;5101103;28;20138;-77
2022/03/06 08:36:47;;;;;;;57.43;23.57;;;;;;;2.02;100.00;99979.53;5099975;28;20269;-77
2022/03/06 08:39:12;;;;;;;44.40;17.80;;;;;;;1.86;100.00;99971.88;5101440;28;20063;-76
2022/03/06 08:41:38;;;;;;;36.77;16.40;;;;;;;1.89;100.00;100003.00;5101010;28;20086;-76
2022/03/06 08:44:03;;;;;;;48.07;20.20;;;;;;;1.77;100.00;99966.44;5100212;28;20253;-76
2022/03/06 08:46:29;;;;;;;55.07;24.60;;;;;;;1.96;100.00;99955.59;5100084;28;20047;-76
2022/03/06 08:48:54;;;;;;;41.50;19.73;;;;;;;1.98;100.00;99987.69;5100441;28;20039;-76
2022/03/06 08:51:20;;;;;;;49.70;20.47;;;;;;;1.93;100.00;99988.81;5101479;28;20337;-76
2022/03/06 08:53:45;;;;;;;48.97;19.93;;;;;;;1.96;100.00;99992.16;5098466;28;20032;-76
2022/03/06 08:56:11;;;;;;;29.47;13.87;;;;;;;1.69;100.00;99966.94;5100153;28;20036;-76
2022/03/06 08:58:36;;;;;;;40.80;18.17;;;;;;;1.77;100.00;99972.50;5099772;28;20023;-76
2022/03/06 09:01:01;;;;;;;51.30;22.20;;;;;;;1.75;100.00;99971.75;5093744;28;20052;-76
2022/03/06 09:03:28;;;;;;;49.43;21.23;;;;;;;1.92;100.00;99996.75;5100848;28;20039;-76
2022/03/06 09:05:53;;;;;;;40.73;16.93;;;;;;;1.83;100.00;99981.69;5100405;28;20040;-76
2022/03/06 09:08:19;;;;;;;47.00;19.47;;;;;;;1.95;100.00;99982.66;5099321;28;20024;-76
2022/03/06 09:10:44;;;;;;;43.40;17.70;;;;;;;1.99;100.00;99984.13;5098369;28;20031;-76
2022/03/06 09:13:10;;;;;;;49.27;21.67;;;;;;;1.96;100.00;99982.56;5098223;28;20105;-77
2022/03/06 09:15:36;;;;;;;38.07;16.53;;;;;;;2.03;100.00;100007.31;5099641;28;20044;-77
2022/03/06 09:18:03;;;;;;;41.93;17.03;;;;;;;1.97;100.00;99997.28;5098452;28;20337;-77
2022/03/06 09:20:28;;;;;;;37.07;15.73;;;;;;;1.89;100.00;99971.69;5100172;28;20040;-76
2022/03/06 09:22:54;;;;;;;51.63;21.43;;;;;;;2.06;100.00;99995.84;5098078;28;20047;-76
2022/03/06 09:25:20;;;;;;;48.27;19.03;;;;;;;1.97;100.00;99981.63;5099089;28;20059;-77
2022/03/06 09:27:46;;;;;;;54.23;22.17;;;;;;;2.16;100.00;99997.78;5098902;28;20248;-77
2022/03/06 09:30:12;;;;;;;57.63;24.30;;;;;;;1.96;100.00;99982.56;5095618;28;20039;-77
2022/03/06 09:32:38;;;;;;;46.80;20.53;;;;;;;2.08;100.00;100007.91;5095390;28;20055;-76
2022/03/06 09:35:05;;;;;;;48.17;19.37;;;;;;;2.05;100.00;100020.28;5097515;28;20046;-76
2022/03/06 09:37:30;;;;;;;39.77;16.60;;;;;;;1.96;100.00;100000.00;5097939;28;20032;-76
2022/03/06 09:39:56;;;;;;;34.50;17.33;;;;;;;2.01;100.00;100018.81;5100470;28;20123;-77
2022/03/06 09:42:22;;;;;;;40.93;18.20;;;;;;;1.95;100.00;99995.72;5098479;28;20203;-77
2022/03/06 09:44:49;;;;;;;46.20;19.67;;;;;;;2.07;100.00;100011.41;5097970;28;20028;-76
2022/03/06 09:47:16;;;;;;;36.33;16.57;;;;;;;1.92;100.00;100002.81;5099649;28;20071;-76
2022/03/06 09:49:43;;;;;;;37.03;17.17;;;;;;;1.94;100.00;100015.78;5097487;28;20060;-76
2022/03/06 09:52:10;;;;;;;34.43;15.33;;;;;;;1.84;100.00;99975.53;5098548;28;20061;-76
2022/03/06 09:54:35;;;;;;;41.80;19.30;;;;;;;1.89;100.00;99995.19;5099614;28;20059;-76
2022/03/06 09:57:01;;;;;;;39.93;16.80;;;;;;;1.92;100.00;99981.91;5098537;28;20080;-77
2022/03/06 09:59:27;;;;;;;43.53;18.23;;;;;;;2.02;100.00;99994.38;5097639;28;20308;-76
2022/03/06 10:01:52;;;;;;;38.30;15.67;;;;;;;2.02;100.00;100002.22;5093218;28;20039;-77
2022/03/06 10:04:25;;;;;;;33.43;15.83;;;;;;;2.03;100.00;99998.66;5097554;28;20038;-77
2022/03/06 10:07:01;;;;;;;41.80;18.57;;;;;;;2.04;100.00;99995.09;5096840;28;20047;-77
2022/03/06 10:09:28;;;;;;;43.60;18.37;;;;;;;2.04;100.00;99995.09;5097169;28;20062;-76
2022/03/06 10:11:54;;;;;;;38.00;14.90;;;;;;;2.00;100.00;99986.63;5098320;28;20032;-76
2022/03/06 10:14:40;;;;;;;37.93;17.30;;;;;;;2.02;100.00;99991.75;5098618;28;20035;-77
2022/03/06 10:17:12;;;;;;;51.17;21.80;;;;;;;1.95;100.00;99982.66;5097395;28;20027;-77
2022/03/06 10:19:50;;;;;;;41.93;17.27;;;;;;;1.99;100.00;99982.34;5099255;28;20039;-77
2022/03/06 10:22:15;;;;;;;44.87;19.20;;;;;;;2.04;100.00;99963.75;5098261;28;20044;-77
2022/03/06 10:24:53;;;;;;;40.07;17.33;;;;;;;2.04;100.00;99958.53;5099695;28;20044;-77
2022/03/06 10:27:46;;;;;;;42.27;18.27;;;;;;;2.10;100.00;99966.00;5096735;28;20028;-76
2022/03/06 10:30:22;;;;;;;48.67;19.63;;;;;;;2.20;100.00;99964.44;5097415;28;20028;-76
2022/03/06 10:32:47;;;;;;;41.77;15.70;;;;;;;2.16;100.00;99961.19;5092368;28;20081;-76
2022/03/06 10:35:13;;;;;;;49.23;21.67;;;;;;;1.98;100.00;99930.22;5096566;28;20028;-77
2022/03/06 10:37:38;;;;;;;37.77;16.90;;;;;;;2.02;100.00;99955.19;5097396;28;20027;-77
2022/03/06 10:40:04;;;;;;;43.23;19.30;;;;;;;2.05;100.00;99950.59;5095489;28;20077;-77
2022/03/06 10:42:30;;;;;;;46.47;20.30;;;;;;;2.10;100.00;99961.59;5099955;28;20036;-76
2022/03/06 10:44:56;;;;;;;38.77;18.63;;;;;;;2.09;100.00;99954.72;5098091;28;20035;-77
2022/03/06 10:47:21;;;;;;;36.07;16.53;;;;;;;2.09;100.00;99978.22;5096306;28;20082;-77
2022/03/06 10:50:01;;;;;;;43.40;18.47;;;;;;;2.09;100.00;99959.94;5098835;28;20032;-77
2022/03/06 10:52:26;;;;;;;47.33;21.17;;;;;;;2.23;100.00;99952.00;5099071;28;20272;-77
2022/03/06 10:54:54;;;;;;;33.53;14.50;;;;;;;2.20;100.00;99961.81;5099160;28;20024;-76
2022/03/06 10:57:22;;;;;;;43.27;18.70;;;;;;;2.07;100.00;99933.06;5099294;28;20028;-76
2022/03/06 10:59:51;;;;;;;40.90;19.03;;;;;;;2.21;100.00;99961.72;5097903;28;20322;-76
2022/03/06 11:02:17;;;;;;;39.47;16.60;;;;;;;2.24;100.00;99956.28;5091547;28;20032;-76
2022/03/06 11:04:53;;;;;;;36.27;16.67;;;;;;;2.10;100.00;99939.88;5098239;28;20086;-77
2022/03/06 11:07:19;;;;;;;46.00;20.03;;;;;;;2.28;100.00;99938.63;5099105;28;20044;-77
2022/03/06 11:09:46;;;;;;;41.40;21.00;;;;;;;2.29;100.00;99939.47;5098226;28;20035;-77
2022/03/06 11:12:12;;;;;;;41.20;16.57;;;;;;;2.18;100.00;99941.03;5097559;28;20063;-76